Time;durP1;ratioP1;P1;durP2;ratioP2;P2;SDS_P1;SDS_P2;PMS_P1;PMS_P2;Temp;Humidity;BMP_temperature;BMP_pressure;BME280_temperature;BME280_humidity;BME280_pressure;Samples;Min_cycle;Max_cycle;Signal;HPM_P1;HPM_P2
2021/05/17 00:02:23;;;;;;;7.07;3.70;;;26.30;20.80;;;;;;4766562;29;20050;-83
2021/05/17 00:04:50;;;;;;;4.45;3.60;;;26.20;21.10;;;;;;4750243;29;20046;-83
2021/05/17 00:07:16;;;;;;;7.53;4.00;;;26.10;21.40;;;;;;4794079;29;20121;-84
2021/05/17 00:09:43;;;;;;;;;;;26.00;21.50;;;;;;4794809;29;20502;-84
2021/05/17 00:12:11;;;;;;;5.53;3.33;;;25.90;21.30;;;;;;4778622;29;19932;-83
2021/05/17 00:14:37;;;;;;;9.27;4.40;;;25.80;21.30;;;;;;4793359;29;20038;-83
2021/05/17 00:17:05;;;;;;;9.95;3.92;;;25.70;21.60;;;;;;4764362;29;20046;-82
2021/05/17 00:19:32;;;;;;;6.43;3.90;;;25.60;21.70;;;;;;4765117;29;20552;-84
2021/05/17 00:21:59;;;;;;;9.27;4.00;;;25.60;21.80;;;;;;4779792;29;20046;-84
2021/05/17 00:24:26;;;;;;;6.85;4.00;;;25.50;21.90;;;;;;4795017;29;20042;-83
2021/05/17 00:26:52;;;;;;;6.05;3.97;;;25.50;22.10;;;;;;4779869;29;20046;-83
2021/05/17 00:29:19;;;;;;;4.28;3.72;;;25.50;22.30;;;;;;4764419;29;20133;-84
2021/05/17 00:31:46;;;;;;;5.43;3.40;;;25.40;23.10;;;;;;4750337;29;20127;-83
2021/05/17 00:34:12;;;;;;;15.13;4.55;;;25.40;22.00;;;;;;4778636;29;20042;-83
2021/05/17 00:36:38;;;;;;;;;;;25.40;22.40;;;;;;4793728;29;20106;-83
2021/05/17 00:39:06;;;;;;;;;;;25.40;22.50;;;;;;4749076;29;20400;-83
2021/05/17 00:41:33;;;;;;;11.15;4.57;;;25.40;22.30;;;;;;4763296;29;19932;-84
2021/05/17 00:43:59;;;;;;;;;;;25.30;22.80;;;;;;4763338;29;20080;-84
2021/05/17 00:46:25;;;;;;;;;;;25.20;23.20;;;;;;4764461;29;19933;-83
2021/05/17 00:48:52;;;;;;;8.98;4.03;;;25.20;23.00;;;;;;4762852;29;19952;-82
2021/05/17 00:51:18;;;;;;;6.68;3.70;;;25.20;22.90;;;;;;4778323;29;20113;-82
2021/05/17 00:53:45;;;;;;;;;;;25.20;22.90;;;;;;4763424;29;20557;-82
2021/05/17 00:56:11;;;;;;;6.65;4.38;;;25.20;22.80;;;;;;4777905;29;19937;-83
2021/05/17 00:58:38;;;;;;;;;;;25.20;23.10;;;;;;4763252;29;20138;-82
2021/05/17 01:01:05;;;;;;;10.07;4.43;;;25.20;23.10;;;;;;4763876;29;20005;-82
2021/05/17 01:03:32;;;;;;;12.27;5.22;;;25.20;23.40;;;;;;4763591;29;20067;-84
2021/05/17 01:06:00;;;;;;;9.43;4.50;;;25.20;23.80;;;;;;4763131;29;20109;-83
2021/05/17 01:08:34;;;;;;;7.22;4.20;;;25.10;23.70;;;;;;4792526;29;20053;-83
2021/05/17 01:11:04;;;;;;;10.65;4.25;;;25.00;23.80;;;;;;4778392;29;20046;-82
2021/05/17 01:13:31;;;;;;;12.70;4.78;;;25.00;24.00;;;;;;4763349;29;20042;-84
2021/05/17 01:15:59;;;;;;;19.80;4.70;;;25.00;24.30;;;;;;4762966;29;20128;-84
2021/05/17 01:18:26;;;;;;;11.50;4.97;;;25.00;24.50;;;;;;4792638;29;20038;-83
2021/05/17 01:20:55;;;;;;;17.77;5.57;;;25.00;25.10;;;;;;4763077;29;20034;-82
2021/05/17 01:25:48;;;;;;;;;;;25.00;24.50;;;;;;4778370;29;20037;-84
2021/05/17 01:28:22;;;;;;;17.65;5.30;;;25.00;24.30;;;;;;4781346;29;19932;-83
2021/05/17 01:30:49;;;;;;;15.82;5.75;;;25.10;24.50;;;;;;4767378;29;20038;-84
2021/05/17 01:33:16;;;;;;;11.27;4.78;;;25.20;24.90;;;;;;4781726;29;20402;-83
2021/05/17 01:35:42;;;;;;;;;;;25.20;24.70;;;;;;4780780;29;20137;-83
2021/05/17 01:38:08;;;;;;;22.20;6.22;;;25.20;24.60;;;;;;4765307;29;19940;-82
2021/05/17 01:40:35;;;;;;;;;;;25.20;25.10;;;;;;4780791;29;20110;-86
2021/05/17 01:43:05;;;;;;;8.77;4.72;;;25.30;25.10;;;;;;4781449;29;20004;-83
2021/05/17 01:45:31;;;;;;;22.90;6.22;;;25.40;24.70;;;;;;4765346;29;20496;-83
2021/05/17 01:47:58;;;;;;;22.65;6.15;;;25.40;25.20;;;;;;4765899;29;20049;-83
2021/05/17 01:50:25;;;;;;;14.25;4.68;;;25.50;25.50;;;;;;4780568;29;20068;-82
2021/05/17 01:52:52;;;;;;;16.10;5.90;;;25.50;25.10;;;;;;4765899;29;20046;-83
2021/05/17 01:55:19;;;;;;;15.82;5.55;;;25.60;25.00;;;;;;4780925;29;20046;-83
2021/05/17 01:57:45;;;;;;;10.55;4.72;;;25.60;25.00;;;;;;4781010;29;20053;-84
2021/05/17 02:00:13;;;;;;;;;;;25.80;25.00;;;;;;4766112;29;20053;-83
2021/05/17 02:02:39;;;;;;;13.98;5.25;;;25.90;25.00;;;;;;4766021;29;19948;-84
2021/05/17 02:05:07;;;;;;;10.07;4.88;;;26.00;24.70;;;;;;4779895;29;20080;-83
2021/05/17 02:07:34;;;;;;;8.90;4.70;;;26.20;24.50;;;;;;4780299;29;20102;-84
2021/05/17 02:10:00;;;;;;;17.45;6.60;;;26.50;24.10;;;;;;4795325;29;20038;-83
2021/05/17 02:12:26;;;;;;;14.70;6.18;;;26.90;24.70;;;;;;4780324;29;20062;-81
2021/05/17 02:14:54;;;;;;;;;;;27.30;25.40;;;;;;4780590;29;20038;-81
2021/05/17 02:17:21;;;;;;;5.93;4.30;;;27.70;25.00;;;;;;4765840;29;20013;-84
2021/05/17 02:19:48;;;;;;;7.28;4.38;;;28.20;23.40;;;;;;4766389;29;20129;-83
2021/05/17 02:22:21;;;;;;;11.88;4.85;;;28.60;21.80;;;;;;4780320;29;20046;-84
2021/05/17 02:24:48;;;;;;;6.00;4.18;;;29.00;21.20;;;;;;4778664;29;20050;-85
2021/05/17 02:27:15;;;;;;;9.02;4.80;;;29.30;20.10;;;;;;4773511;29;20057;-83
2021/05/17 02:29:43;;;;;;;8.77;4.43;;;29.60;19.70;;;;;;4798492;29;20045;-83
2021/05/17 02:32:10;;;;;;;7.65;4.57;;;29.80;19.40;;;;;;4779632;29;20049;-83
2021/05/17 02:34:36;;;;;;;7.10;4.60;;;29.80;18.90;;;;;;4764309;29;20058;-85
2021/05/17 02:37:03;;;;;;;6.53;4.75;;;29.80;18.90;;;;;;4795271;29;20133;-83
2021/05/17 02:39:30;;;;;;;7.30;4.63;;;29.70;18.80;;;;;;4797306;29;20082;-86
2021/05/17 02:41:56;;;;;;;6.47;4.70;;;29.40;19.00;;;;;;4797619;29;20065;-86
2021/05/17 02:44:23;;;;;;;;;;;29.20;19.10;;;;;;4769526;29;20413;-82
2021/05/17 02:46:55;;;;;;;8.77;5.07;;;29.00;19.30;;;;;;4783217;29;19958;-82
2021/05/17 02:49:22;;;;;;;10.90;5.28;;;28.80;19.60;;;;;;4812846;29;20057;-82
2021/05/17 02:51:49;;;;;;;14.93;6.15;;;28.60;20.10;;;;;;4783229;29;20087;-84
2021/05/17 02:54:26;;;;;;;8.15;5.32;;;28.50;20.60;;;;;;4797726;29;20041;-83
2021/05/17 02:56:58;;;;;;;8.32;5.20;;;28.30;20.60;;;;;;4780628;29;20140;-81
2021/05/17 02:59:37;;;;;;;10.45;5.72;;;28.20;20.60;;;;;;4779398;29;20054;-81
2021/05/17 03:02:09;;;;;;;10.32;5.60;;;28.20;20.90;;;;;;4765217;29;20058;-89
2021/05/17 03:04:40;;;;;;;6.78;4.82;;;28.10;21.10;;;;;;4795904;29;20169;-85
2021/05/17 03:07:10;;;;;;;6.07;4.68;;;28.10;21.20;;;;;;4798201;29;20124;-84
2021/05/17 03:09:37;;;;;;;8.38;4.85;;;28.10;21.20;;;;;;4783255;29;20056;-84
2021/05/17 03:12:03;;;;;;;8.23;5.45;;;28.10;21.40;;;;;;4797405;29;20063;-83
2021/05/17 03:14:30;;;;;;;5.35;4.80;;;28.10;21.50;;;;;;4782585;29;20045;-85
2021/05/17 03:16:59;;;;;;;5.68;5.00;;;28.10;21.70;;;;;;4797546;29;20538;-89
2021/05/17 03:19:26;;;;;;;8.57;5.28;;;28.00;21.80;;;;;;4812488;29;20045;-84
2021/05/17 03:21:56;;;;;;;10.88;5.20;;;28.00;21.90;;;;;;4797629;29;20064;-84
2021/05/17 03:24:23;;;;;;;8.50;5.53;;;28.00;22.00;;;;;;4781673;29;20038;-84
2021/05/17 03:26:50;;;;;;;12.93;5.35;;;28.10;22.20;;;;;;4796845;29;20049;-87
2021/05/17 03:29:16;;;;;;;10.88;4.88;;;28.20;22.60;;;;;;4782177;29;20411;-85
2021/05/17 03:31:42;;;;;;;12.18;5.07;;;28.30;22.60;;;;;;4812581;29;20106;-84
2021/05/17 03:34:08;;;;;;;12.15;5.32;;;28.30;23.60;;;;;;4796927;29;20052;-84
2021/05/17 03:36:34;;;;;;;8.75;4.70;;;28.40;22.80;;;;;;4796896;29;20030;-85
2021/05/17 03:39:00;;;;;;;;;;;28.50;22.90;;;;;;4782006;29;20048;-87
2021/05/17 03:41:27;;;;;;;8.98;5.22;;;28.60;23.80;;;;;;4798271;29;19928;-84
2021/05/17 03:43:53;;;;;;;8.38;5.40;;;28.70;22.90;;;;;;4796599;29;20042;-84
2021/05/17 03:46:19;;;;;;;11.80;5.57;;;28.80;22.70;;;;;;4781677;29;20078;-83
2021/05/17 03:48:45;;;;;;;;;;;28.80;22.70;;;;;;4781085;29;20038;-83
2021/05/17 03:51:11;;;;;;;11.10;5.18;;;28.90;22.70;;;;;;4781763;29;19996;-83
2021/05/17 03:53:38;;;;;;;10.00;5.45;;;29.00;22.70;;;;;;4782289;29;20053;-83
2021/05/17 03:56:05;;;;;;;9.48;5.53;;;29.10;22.60;;;;;;4797436;29;20057;-83
2021/05/17 03:58:31;;;;;;;9.20;5.10;;;29.20;22.60;;;;;;4796558;29;20052;-83
2021/05/17 04:00:58;;;;;;;;;;;29.30;22.50;;;;;;4797103;29;20079;-84
2021/05/17 04:03:25;;;;;;;9.45;5.53;;;29.30;22.40;;;;;;4782147;29;19944;-83
2021/05/17 04:06:07;;;;;;;10.25;4.90;;;29.40;22.10;;;;;;4796426;29;20541;-84
2021/05/17 04:13:55;;;;;;;11.07;5.18;;;29.60;23.00;;;;;;4799169;29;20042;-85
2021/05/17 04:16:21;;;;;;;8.13;4.80;;;29.80;21.90;;;;;;4782165;29;20042;-87
2021/05/17 04:18:48;;;;;;;6.63;4.72;;;29.90;21.70;;;;;;4782292;29;20581;-86
2021/05/17 04:21:14;;;;;;;7.82;5.40;;;30.00;21.40;;;;;;4797227;29;20172;-85
2021/05/17 04:23:41;;;;;;;12.23;5.20;;;30.00;21.60;;;;;;4797472;29;20122;-85
2021/05/17 04:26:07;;;;;;;;;;;30.10;21.10;;;;;;4797357;29;20053;-85
2021/05/17 04:28:33;;;;;;;17.90;5.72;;;30.20;20.90;;;;;;4811195;29;19935;-86
2021/05/17 04:31:00;;;;;;;9.00;5.45;;;30.30;20.80;;;;;;4796473;29;20046;-86
2021/05/17 04:33:26;;;;;;;10.18;5.45;;;30.40;20.40;;;;;;4796806;29;20038;-85
2021/05/17 04:35:54;;;;;;;9.25;5.20;;;30.50;20.50;;;;;;4795680;29;20109;-84
2021/05/17 04:38:21;;;;;;;9.25;5.35;;;30.60;20.30;;;;;;4796860;29;20049;-85
2021/05/17 04:40:47;;;;;;;11.93;5.70;;;30.70;19.60;;;;;;4796936;29;20038;-84
2021/05/17 04:43:14;;;;;;;8.77;5.13;;;30.80;19.60;;;;;;4796582;29;20124;-85
2021/05/17 04:45:40;;;;;;;10.90;5.32;;;30.90;19.60;;;;;;4781432;29;20053;-86
2021/05/17 04:48:06;;;;;;;6.95;5.65;;;31.10;19.50;;;;;;4782245;29;20071;-84
2021/05/17 04:50:33;;;;;;;11.18;5.43;;;31.40;19.30;;;;;;4781374;29;20055;-85
2021/05/17 04:53:00;;;;;;;14.18;5.63;;;31.80;18.80;;;;;;4781166;29;20042;-86
2021/05/17 04:55:26;;;;;;;9.00;5.10;;;32.10;18.50;;;;;;4781650;29;20042;-86
2021/05/17 04:57:53;;;;;;;8.93;5.03;;;32.30;18.10;;;;;;4797179;29;20136;-85
2021/05/17 05:00:20;;;;;;;12.55;5.68;;;32.40;18.10;;;;;;4808549;29;20089;-84
2021/05/17 05:02:46;;;;;;;9.13;5.05;;;32.70;18.10;;;;;;4763467;29;20128;-85
2021/05/17 05:05:13;;;;;;;6.43;5.15;;;32.90;17.80;;;;;;4777947;29;20049;-85
2021/05/17 05:07:39;;;;;;;9.55;5.45;;;33.10;17.10;;;;;;4778350;29;20117;-85
2021/05/17 05:10:06;;;;;;;10.93;4.90;;;33.40;17.00;;;;;;4749270;29;20038;-85
2021/05/17 05:12:32;;;;;;;12.02;4.88;;;34.20;16.80;;;;;;4748544;29;20037;-85
2021/05/17 05:14:58;;;;;;;9.05;5.03;;;35.50;16.10;;;;;;4748471;29;20042;-87
2021/05/17 05:17:25;;;;;;;9.52;4.80;;;37.30;14.50;;;;;;4793649;29;20084;-85
2021/05/17 05:19:51;;;;;;;7.13;4.50;;;38.90;12.40;;;;;;4778282;29;20053;-86
2021/05/17 05:22:17;;;;;;;9.50;4.78;;;39.80;11.30;;;;;;4794265;29;20046;-86
2021/05/17 05:24:45;;;;;;;7.25;4.45;;;40.70;10.80;;;;;;4794323;29;20049;-86
2021/05/17 05:27:24;;;;;;;9.63;5.60;;;41.60;10.00;;;;;;4778500;29;20038;-86
2021/05/17 05:35:39;;;;;;;6.47;4.70;;;44.00;8.20;;;;;;4710374;30;20048;-86
2021/05/17 05:38:06;;;;;;;8.77;4.55;;;44.70;7.30;;;;;;4752543;29;20042;-84
2021/05/17 05:40:32;;;;;;;9.70;5.07;;;45.00;7.20;;;;;;4763691;29;20106;-86
2021/05/17 05:42:58;;;;;;;12.20;5.05;;;45.40;6.60;;;;;;4764302;29;20641;-86
2021/05/17 05:45:25;;;;;;;6.32;4.30;;;45.80;6.80;;;;;;4734406;29;20041;-86
2021/05/17 05:47:51;;;;;;;6.82;4.53;;;46.00;5.80;;;;;;4762720;29;20053;-87
2021/05/17 05:50:17;;;;;;;8.20;4.70;;;45.90;5.80;;;;;;4748716;29;20057;-85
2021/05/17 05:52:44;;;;;;;9.10;4.55;;;45.60;5.60;;;;;;4793830;29;20121;-86
2021/05/17 05:55:11;;;;;;;10.80;4.65;;;45.00;6.30;;;;;;4793178;29;20613;-86
2021/05/17 05:57:41;;;;;;;8.55;5.10;;;44.40;7.00;;;;;;4777384;29;20068;-86
2021/05/17 06:00:12;;;;;;;15.60;5.38;;;44.50;8.40;;;;;;4809039;29;20049;-85
2021/05/17 06:02:38;;;;;;;8.32;4.47;;;44.70;6.50;;;;;;4780499;29;20526;-86
2021/05/17 06:05:06;;;;;;;12.75;5.25;;;45.00;6.50;;;;;;4796130;29;20528;-86
2021/05/17 06:07:32;;;;;;;8.38;4.90;;;45.60;6.10;;;;;;4765891;29;20041;-85
2021/05/17 06:09:59;;;;;;;10.75;4.70;;;46.40;5.70;;;;;;4811567;29;20042;-86
2021/05/17 06:12:25;;;;;;;6.40;4.60;;;47.10;5.00;;;;;;4796555;29;20072;-85
2021/05/17 06:15:04;;;;;;;7.63;4.63;;;47.60;4.60;;;;;;4798571;29;20061;-85
2021/05/17 06:17:31;;;;;;;11.13;4.28;;;48.20;4.20;;;;;;4785895;29;20042;-85
2021/05/17 06:19:57;;;;;;;7.18;4.50;;;48.80;3.80;;;;;;4798446;29;20115;-83
2021/05/17 06:22:26;;;;;;;6.93;4.32;;;49.10;3.50;;;;;;4801076;29;20038;-85
2021/05/17 06:24:53;;;;;;;9.13;4.47;;;49.20;3.60;;;;;;4815669;29;20034;-85
2021/05/17 06:27:20;;;;;;;7.40;4.40;;;49.60;3.40;;;;;;4799069;29;20042;-85
2021/05/17 06:29:47;;;;;;;9.40;4.47;;;50.00;2.60;;;;;;4798263;29;20053;-86
2021/05/17 06:32:14;;;;;;;8.27;4.28;;;49.80;2.60;;;;;;4783740;29;20042;-85
2021/05/17 06:34:41;;;;;;;9.27;4.40;;;49.50;2.70;;;;;;4783970;29;20169;-83
2021/05/17 06:37:07;;;;;;;8.13;4.30;;;49.20;3.10;;;;;;4798439;29;20098;-83
2021/05/17 06:39:34;;;;;;;12.25;5.18;;;49.10;3.30;;;;;;4812636;29;20068;-85
2021/05/17 06:42:00;;;;;;;12.30;4.70;;;49.00;3.60;;;;;;4812459;29;20049;-83
2021/05/17 06:44:27;;;;;;;6.22;4.13;;;49.00;3.60;;;;;;4813099;29;20117;-83
2021/05/17 06:46:53;;;;;;;5.28;4.35;;;49.10;3.40;;;;;;4813196;29;20045;-86
2021/05/17 06:49:20;;;;;;;7.68;4.47;;;49.10;3.20;;;;;;4814213;29;20478;-83
2021/05/17 06:51:47;;;;;;;17.10;5.22;;;49.00;3.30;;;;;;4813408;29;20109;-85
2021/05/17 06:54:15;;;;;;;18.77;5.53;;;49.10;3.40;;;;;;4813605;29;20042;-84
2021/05/17 06:56:50;;;;;;;10.98;5.10;;;49.40;4.10;;;;;;4813256;29;20038;-83
2021/05/17 06:59:19;;;;;;;8.77;5.00;;;50.10;3.60;;;;;;4812418;29;20045;-83
2021/05/17 07:01:45;;;;;;;8.10;5.05;;;50.50;3.40;;;;;;4781841;29;20053;-84
2021/05/17 07:04:16;;;;;;;13.85;5.28;;;50.90;3.40;;;;;;4811889;29;20044;-83
2021/05/17 07:06:54;;;;;;;7.72;4.60;;;51.20;3.40;;;;;;4782855;29;20063;-82
2021/05/17 07:12:14;;;;;;;7.30;4.35;;;52.20;2.40;;;;;;4799637;29;20456;-83
2021/05/17 07:14:40;;;;;;;7.20;4.60;;;52.30;2.10;;;;;;4797141;29;20540;-84
2021/05/17 07:17:07;;;;;;;7.97;4.60;;;52.10;2.20;;;;;;4796988;29;20052;-83
2021/05/17 07:19:34;;;;;;;8.00;5.15;;;51.70;2.30;;;;;;4782698;29;20042;-83
2021/05/17 07:24:45;;;;;;;12.85;5.03;;;51.30;2.70;;;;;;4812010;29;20042;-86
2021/05/17 07:27:11;;;;;;;12.93;5.10;;;51.60;2.40;;;;;;4782360;29;20561;-84
2021/05/17 07:29:38;;;;;;;7.00;4.55;;;51.50;2.30;;;;;;4811646;29;20046;-85
2021/05/17 07:32:08;;;;;;;7.55;4.80;;;51.30;2.00;;;;;;4811096;29;20118;-84
2021/05/17 07:34:36;;;;;;;7.32;4.65;;;50.50;2.60;;;;;;4797300;29;20041;-83
2021/05/17 07:37:04;;;;;;;5.00;4.30;;;50.20;2.80;;;;;;4797362;29;20057;-85
2021/05/17 07:39:30;;;;;;;10.35;4.70;;;50.00;2.90;;;;;;4781971;29;20566;-84
2021/05/17 07:41:56;;;;;;;9.07;4.63;;;49.50;3.30;;;;;;4797316;29;20473;-85
2021/05/17 07:44:23;;;;;;;8.32;4.78;;;49.50;3.70;;;;;;4768291;29;20046;-83
2021/05/17 07:46:49;;;;;;;9.93;4.35;;;50.00;3.40;;;;;;4769312;29;20169;-83
2021/05/17 07:49:18;;;;;;;12.77;5.22;;;50.10;3.20;;;;;;4814142;29;20044;-84
2021/05/17 07:51:45;;;;;;;11.02;4.60;;;49.70;3.30;;;;;;4812962;29;20041;-83
2021/05/17 07:54:13;;;;;;;8.55;4.63;;;50.00;3.30;;;;;;4812344;29;20048;-84
2021/05/17 07:56:40;;;;;;;13.15;4.70;;;50.10;3.10;;;;;;4812890;29;20041;-83
2021/05/17 07:59:07;;;;;;;13.57;5.07;;;50.00;3.20;;;;;;4797569;29;20049;-84
2021/05/17 08:01:33;;;;;;;9.35;5.13;;;50.50;3.40;;;;;;4811624;29;20068;-85
2021/05/17 08:03:59;;;;;;;7.80;4.93;;;51.20;3.30;;;;;;4796935;29;20053;-85
2021/05/17 08:06:26;;;;;;;10.55;4.57;;;51.40;2.30;;;;;;4783104;29;20037;-84
2021/05/17 08:08:53;;;;;;;8.18;4.95;;;50.90;2.60;;;;;;4797640;29;20126;-85
2021/05/17 08:11:20;;;;;;;10.75;5.07;;;50.50;3.50;;;;;;4811747;29;20106;-86
2021/05/17 08:13:47;;;;;;;11.07;4.85;;;50.70;3.70;;;;;;4811791;29;20042;-84
2021/05/17 08:16:15;;;;;;;12.27;5.13;;;51.40;3.50;;;;;;4797716;29;20557;-84
2021/05/17 08:18:42;;;;;;;9.10;4.72;;;52.20;2.70;;;;;;4783538;29;20625;-84
2021/05/17 08:21:09;;;;;;;12.82;4.47;;;52.80;2.30;;;;;;4782183;29;20102;-85
2021/05/17 08:23:37;;;;;;;10.73;5.10;;;53.30;2.30;;;;;;4811383;29;20044;-85
2021/05/17 08:26:06;;;;;;;10.55;4.80;;;53.50;1.20;;;;;;4781099;29;20041;-83
2021/05/17 08:28:36;;;;;;;10.02;5.05;;;53.30;1.50;;;;;;4782806;29;20037;-84
2021/05/17 08:31:03;;;;;;;12.52;4.97;;;53.50;1.70;;;;;;4782425;29;20137;-84
2021/05/17 08:33:30;;;;;;;10.07;5.20;;;53.80;1.30;;;;;;4812059;29;20119;-83
2021/05/17 08:35:57;;;;;;;14.85;5.55;;;53.90;1.20;;;;;;4797109;29;20127;-84
2021/05/17 08:38:23;;;;;;;7.93;4.65;;;53.60;1.30;;;;;;4811661;29;20056;-85
2021/05/17 08:40:49;;;;;;;9.75;4.75;;;53.60;1.20;;;;;;4797092;29;20061;-84
2021/05/17 08:43:15;;;;;;;13.80;5.13;;;53.40;1.10;;;;;;4796027;29;20403;-84
2021/05/17 08:45:44;;;;;;;10.93;4.50;;;53.10;1.40;;;;;;4796687;29;20048;-83
2021/05/17 08:48:10;;;;;;;18.73;5.25;;;52.80;1.70;;;;;;4811198;29;20034;-85
2021/05/17 08:50:37;;;;;;;10.80;4.97;;;52.60;1.60;;;;;;4812578;29;20109;-85
2021/05/17 08:53:04;;;;;;;11.55;4.95;;;52.00;1.70;;;;;;4811220;29;20040;-84
2021/05/17 08:55:30;;;;;;;8.80;4.60;;;51.80;2.40;;;;;;4810606;29;20042;-83
2021/05/17 08:57:57;;;;;;;8.57;4.50;;;51.90;2.40;;;;;;4812977;29;20117;-83
2021/05/17 09:00:23;;;;;;;10.45;5.03;;;51.90;1.90;;;;;;4796197;29;20057;-84
2021/05/17 09:02:51;;;;;;;12.32;4.75;;;51.70;1.70;;;;;;4795955;29;20115;-83
2021/05/17 09:05:19;;;;;;;8.63;4.65;;;51.20;2.00;;;;;;4766864;29;20045;-85
2021/05/17 09:07:50;;;;;;;7.63;4.80;;;51.00;2.20;;;;;;4812412;29;20037;-84
2021/05/17 09:10:21;;;;;;;9.63;4.63;;;51.20;2.00;;;;;;4795337;29;20069;-85
2021/05/17 09:13:15;;;;;;;6.82;4.60;;;51.00;2.30;;;;;;4796380;29;20046;-84
2021/05/17 09:15:41;;;;;;;9.10;4.68;;;50.70;2.20;;;;;;4778297;29;20121;-84
2021/05/17 09:18:14;;;;;;;14.98;5.18;;;50.80;2.20;;;;;;4812822;29;20038;-84
2021/05/17 09:20:42;;;;;;;10.13;4.72;;;51.00;2.20;;;;;;4795514;29;20124;-84
2021/05/17 09:23:32;;;;;;;13.15;4.45;;;51.50;1.70;;;;;;4796672;29;20401;-83
2021/05/17 09:26:12;;;;;;;8.68;4.60;;;51.70;1.70;;;;;;4811952;29;20568;-84
2021/05/17 09:28:51;;;;;;;9.63;4.70;;;51.90;1.80;;;;;;4768089;29;20053;-84
2021/05/17 09:31:19;;;;;;;8.65;4.47;;;51.70;1.60;;;;;;4782900;29;20124;-84
2021/05/17 09:33:57;;;;;;;12.60;4.80;;;51.70;1.60;;;;;;4796097;29;20045;-85
2021/05/17 09:36:35;;;;;;;14.45;5.35;;;51.60;1.90;;;;;;4796176;29;20102;-84
2021/05/17 09:39:05;;;;;;;6.70;4.07;;;51.70;2.00;;;;;;4781493;29;20046;-85
2021/05/17 09:41:41;;;;;;;11.15;5.07;;;51.80;1.30;;;;;;4780057;29;20046;-84
2021/05/17 09:44:08;;;;;;;9.27;4.57;;;51.10;1.50;;;;;;4811083;29;20038;-85
2021/05/17 09:46:57;;;;;;;10.98;4.28;;;50.50;2.00;;;;;;4810937;29;20068;-84
2021/05/17 09:49:55;;;;;;;9.40;4.82;;;50.00;2.20;;;;;;4768791;29;20124;-86
2021/05/17 09:52:29;;;;;;;9.48;5.00;;;49.50;2.30;;;;;;4784624;29;20589;-84
2021/05/17 09:55:07;;;;;;;9.73;4.50;;;48.60;2.80;;;;;;4813118;29;20037;-84
2021/05/17 09:57:42;;;;;;;11.00;4.55;;;47.60;3.40;;;;;;4799174;29;20041;-85
2021/05/17 10:02:54;;;;;;;9.10;4.70;;;45.80;4.30;;;;;;4209303;33;20401;-86
2021/05/17 10:08:02;;;;;;;11.57;4.65;;;44.90;5.50;;;;;;4276575;32;1100709;-83
2021/05/17 10:10:28;;;;;;;8.35;4.32;;;43.40;6.20;;;;;;5021188;28;20479;-84
2021/05/17 10:13:03;;;;;;;7.97;4.47;;;42.80;6.20;;;;;;5005036;28;20033;-85
2021/05/17 10:15:31;;;;;;;11.52;4.47;;;42.10;6.30;;;;;;4971659;28;20052;-86
2021/05/17 10:17:59;;;;;;;10.25;4.30;;;41.50;7.10;;;;;;5005700;28;20036;-84
2021/05/17 10:20:26;;;;;;;12.20;4.53;;;41.00;8.80;;;;;;5005634;28;20044;-83
2021/05/17 10:22:54;;;;;;;12.20;5.10;;;40.70;8.00;;;;;;4956539;28;20098;-83
2021/05/17 10:25:26;;;;;;;12.30;4.53;;;40.40;8.10;;;;;;4984561;28;20048;-84
2021/05/17 10:28:00;;;;;;;10.52;4.28;;;40.20;8.10;;;;;;4970705;28;20061;-85
2021/05/17 10:30:32;;;;;;;12.23;4.45;;;40.00;8.00;;;;;;4969801;28;20434;-86
2021/05/17 10:33:06;;;;;;;7.72;4.07;;;39.70;7.60;;;;;;4969193;28;20037;-84
2021/05/17 10:41:00;;;;;;;10.55;4.35;;;39.10;8.30;;;;;;4407276;32;403841;-83
2021/05/17 10:46:42;;;;;;;12.63;5.05;;;38.80;8.70;;;;;;4410005;32;305348;-83
2021/05/17 10:49:29;;;;;;;13.45;5.53;;;38.80;9.60;;;;;;5117822;28;20040;-82
2021/05/17 10:52:16;;;;;;;11.60;4.55;;;38.80;9.00;;;;;;5085879;28;20045;-84
2021/05/17 10:54:45;;;;;;;12.50;4.35;;;38.90;8.90;;;;;;5117333;28;20051;-85
2021/05/17 10:57:19;;;;;;;15.07;4.95;;;38.90;9.20;;;;;;5084474;28;20589;-83
2021/05/17 11:02:38;;;;;;;12.27;4.38;;;38.70;7.70;;;;;;5104398;28;20031;-84
2021/05/17 11:05:18;;;;;;;10.73;4.50;;;38.60;7.40;;;;;;5083897;28;20417;-82
2021/05/17 11:07:55;;;;;;;9.55;4.43;;;38.50;7.40;;;;;;5085202;28;20030;-84
2021/05/17 11:10:34;;;;;;;12.63;4.78;;;38.50;7.60;;;;;;5084390;28;20035;-83
2021/05/17 11:13:09;;;;;;;10.75;4.25;;;38.40;7.80;;;;;;5101832;28;20045;-83
2021/05/17 11:16:04;;;;;;;9.07;4.25;;;38.40;7.90;;;;;;5083089;28;20034;-83
2021/05/17 11:18:38;;;;;;;12.63;4.50;;;38.50;8.40;;;;;;5072387;28;20042;-84
2021/05/17 11:21:31;;;;;;;10.27;4.30;;;38.50;8.10;;;;;;5119203;28;20039;-84
2021/05/17 11:24:08;;;;;;;11.50;4.30;;;38.60;8.00;;;;;;5100243;28;20046;-82
2021/05/17 11:26:53;;;;;;;13.38;4.50;;;38.60;8.00;;;;;;5065112;28;20054;-83
2021/05/17 11:29:33;;;;;;;9.55;4.20;;;38.60;8.10;;;;;;5080290;28;20398;-83
2021/05/17 11:32:15;;;;;;;13.82;5.18;;;38.60;8.10;;;;;;5047775;28;20043;-83
2021/05/17 11:35:05;;;;;;;17.70;4.65;;;38.60;7.80;;;;;;5059531;28;20104;-83
2021/05/17 11:37:33;;;;;;;35.30;6.95;;;38.60;7.80;;;;;;5060355;28;20091;-84
2021/05/17 11:40:25;;;;;;;11.85;4.25;;;38.60;8.20;;;;;;5060155;28;20061;-83
2021/05/17 11:42:57;;;;;;;20.15;5.18;;;38.50;7.90;;;;;;5062327;28;20031;-83
2021/05/17 11:45:25;;;;;;;14.75;4.85;;;38.50;7.60;;;;;;5059339;28;20122;-82
2021/05/17 11:47:52;;;;;;;19.75;5.45;;;38.40;7.70;;;;;;5091810;28;20110;-84
2021/05/17 11:50:20;;;;;;;12.07;4.22;;;38.40;8.40;;;;;;5076425;28;20032;-84
2021/05/17 11:52:47;;;;;;;11.10;4.40;;;38.20;8.50;;;;;;5075465;28;20032;-82
2021/05/17 11:55:13;;;;;;;10.85;4.63;;;37.90;9.00;;;;;;5042492;28;20042;-83
2021/05/17 11:57:41;;;;;;;7.18;4.13;;;37.70;9.40;;;;;;5030494;28;20062;-82
2021/05/17 12:00:12;;;;;;;17.05;4.80;;;37.60;9.40;;;;;;5045381;28;20046;-84
2021/05/17 12:02:55;;;;;;;9.68;4.40;;;37.60;9.20;;;;;;5062830;28;20099;-82
2021/05/17 12:05:23;;;;;;;23.40;5.05;;;37.50;8.90;;;;;;5062314;28;20118;-82
2021/05/17 12:07:52;;;;;;;8.57;4.38;;;37.60;9.00;;;;;;5062025;28;20054;-83
2021/05/17 12:10:19;;;;;;;10.68;4.20;;;37.60;8.90;;;;;;5062693;28;20036;-85
2021/05/17 12:12:45;;;;;;;21.48;5.32;;;37.70;9.00;;;;;;5045905;28;20602;-83
2021/05/17 12:15:19;;;;;;;11.93;4.95;;;37.80;9.10;;;;;;5062522;28;20085;-85
2021/05/17 12:17:46;;;;;;;17.02;5.68;;;37.90;9.20;;;;;;5030566;28;20062;-84
2021/05/17 12:20:17;;;;;;;15.90;4.97;;;37.90;9.00;;;;;;5029404;28;20099;-84
2021/05/17 12:22:48;;;;;;;8.95;4.28;;;37.90;8.80;;;;;;5044713;28;20085;-85
2021/05/17 12:25:20;;;;;;;10.70;4.28;;;37.80;9.00;;;;;;5045138;28;20453;-83
2021/05/17 12:27:48;;;;;;;11.93;4.50;;;37.70;8.60;;;;;;5029485;28;20035;-83
2021/05/17 12:30:17;;;;;;;15.13;4.82;;;37.60;8.30;;;;;;5028424;28;20036;-84
2021/05/17 12:32:51;;;;;;;14.48;4.35;;;37.50;8.40;;;;;;5044959;28;20043;-85
2021/05/17 12:38:00;;;;;;;13.18;4.35;;;37.50;9.00;;;;;;4376954;32;516040;-81
2021/05/17 12:43:07;;;;;;;12.63;4.40;;;37.40;9.70;;;;;;4405198;32;419130;-81
2021/05/17 12:45:54;;;;;;;12.18;4.00;;;37.50;10.00;;;;;;5117918;28;20037;-81
2021/05/17 12:48:40;;;;;;;17.35;4.65;;;37.30;9.40;;;;;;5085571;28;20109;-81
2021/05/17 12:51:25;;;;;;;10.15;3.70;;;37.30;9.30;;;;;;5084602;28;20536;-80
2021/05/17 12:53:53;;;;;;;7.25;4.25;;;37.20;9.20;;;;;;5050838;28;20038;-80
2021/05/17 12:56:32;;;;;;;17.17;4.60;;;37.20;9.20;;;;;;5083102;28;20087;-81
2021/05/17 12:59:12;;;;;;;10.63;4.30;;;37.20;9.40;;;;;;5050043;28;20091;-82
2021/05/17 13:01:39;;;;;;;17.92;4.72;;;37.10;9.10;;;;;;5118638;28;20099;-81
2021/05/17 13:04:07;;;;;;;12.95;4.45;;;37.10;9.30;;;;;;5099419;28;20054;-85
2021/05/17 13:06:33;;;;;;;9.95;4.60;;;37.00;9.60;;;;;;5050598;28;20525;-81
2021/05/17 13:09:07;;;;;;;12.05;4.00;;;36.90;9.50;;;;;;5061631;28;20053;-82
2021/05/17 13:11:39;;;;;;;9.52;4.13;;;36.80;9.40;;;;;;5037209;28;20096;-80
2021/05/17 13:14:17;;;;;;;10.27;4.20;;;36.70;10.60;;;;;;5046698;28;20035;-81
2021/05/17 13:17:00;;;;;;;14.38;4.15;;;36.70;9.80;;;;;;5062182;28;20039;-81
2021/05/17 13:25:03;;;;;;;15.85;4.82;;;36.70;10.40;;;;;;4328686;32;1072960;-82
2021/05/17 13:31:01;;;;;;;14.98;4.50;;;36.30;10.00;;;;;;5025935;28;20040;-80
2021/05/17 13:33:29;;;;;;;;;;;36.10;10.40;;;;;;4974667;28;20128;-85
2021/05/17 13:36:13;;;;;;;11.93;4.75;;;36.00;10.40;;;;;;5019314;28;19955;-83
2021/05/17 13:38:42;;;;;;;11.40;4.60;;;36.00;10.70;;;;;;4988404;28;20044;-83
2021/05/17 13:41:10;;;;;;;9.20;4.63;;;35.90;11.90;;;;;;4987513;28;20052;-82
2021/05/17 13:43:37;;;;;;;12.55;3.88;;;35.80;11.00;;;;;;5002927;28;20052;-81
2021/05/17 13:46:05;;;;;;;9.98;4.03;;;35.70;11.10;;;;;;5002880;28;20044;-80
2021/05/17 13:48:31;;;;;;;12.60;4.13;;;35.70;11.70;;;;;;5036415;28;20037;-80
2021/05/17 13:50:58;;;;;;;13.82;4.18;;;35.50;11.70;;;;;;4986788;28;20055;-80
2021/05/17 13:53:24;;;;;;;13.70;4.95;;;35.50;11.70;;;;;;4986666;28;20119;-82
2021/05/17 13:55:50;;;;;;;8.35;4.00;;;35.40;12.10;;;;;;5001976;28;20041;-80